Time;durP1;ratioP1;P1;durP2;ratioP2;P2;SDS_P1;SDS_P2;PMS_P1;PMS_P2;Temp;Humidity;BMP_temperature;BMP_pressure;BME280_temperature;BME280_humidity;BME280_pressure;Samples;Min_cycle;Max_cycle;Signal;HPM_P1;HPM_P2
2021/01/11 00:02:58;;;;;;;11.10;9.43;;;;;;;;;;5122362;28;20092;-59
2021/01/11 00:05:39;;;;;;;17.00;12.00;;;;;;;;;;5123027;28;20027;-59
2021/01/11 00:08:24;;;;;;;14.90;10.23;;;;;;;;;;5122775;28;20048;-59
2021/01/11 00:14:12;;;;;;;11.53;10.17;;;;;;;;;;5122252;28;20107;-59
2021/01/11 00:17:21;;;;;;;14.93;12.50;;;;;;;;;;5121806;28;20399;-59
2021/01/11 00:19:57;;;;;;;13.43;10.13;;;;;;;;;;5040260;28;20049;-59
2021/01/11 00:22:58;;;;;;;15.70;11.30;;;;;;;;;;5122714;28;20035;-59
2021/01/11 00:25:24;;;;;;;16.60;12.83;;;;;;;;;;5039199;28;20087;-59
2021/01/11 00:30:52;;;;;;;;;;;;;;;;;;;;;
2021/01/11 00:33:36;;;;;;;14.27;12.07;;;;;;;;;;5126225;28;20114;-58
2021/01/11 00:39:15;;;;;;;20.97;11.27;;;;;;;;;;5126812;28;20078;-59
2021/01/11 00:42:10;;;;;;;17.13;11.27;;;;;;;;;;5094133;28;20075;-59
2021/01/11 00:44:36;;;;;;;14.83;11.37;;;;;;;;;;5083157;28;20051;-59
2021/01/11 00:47:34;;;;;;;15.93;11.53;;;;;;;;;;5105827;28;20066;-58
2021/01/11 00:50:19;;;;;;;12.37;11.23;;;;;;;;;;5105764;28;20092;-59
2021/01/11 00:55:50;;;;;;;12.93;10.33;;;;;;;;;;5099053;28;20036;-59
2021/01/11 01:07:48;;;;;;;14.20;11.50;;;;;;;;;;5105795;28;20035;-59
2021/01/11 01:10:37;;;;;;;15.47;13.17;;;;;;;;;;5105449;28;20083;-59
2021/01/11 01:13:37;;;;;;;12.90;10.20;;;;;;;;;;5082884;28;20033;-58
2021/01/11 01:22:41;;;;;;;11.07;8.87;;;;;;;;;;5054695;28;20121;-58
2021/01/11 01:28:47;;;;;;;13.67;11.30;;;;;;;;;;5075619;28;20062;-59
2021/01/11 01:31:18;;;;;;;13.00;10.33;;;;;;;;;;5066697;28;20051;-59
2021/01/11 01:34:05;;;;;;;12.93;11.57;;;;;;;;;;5066951;28;20152;-59
2021/01/11 01:37:10;;;;;;;16.10;13.70;;;;;;;;;;5066142;28;20040;-59
2021/01/11 01:39:39;;;;;;;16.30;12.27;;;;;;;;;;5081535;28;20050;-60
2021/01/11 01:42:36;;;;;;;16.17;13.25;;;;;;;;;;5103053;28;20086;-59
2021/01/11 01:45:32;;;;;;;11.57;10.37;;;;;;;;;;5123375;28;20028;-58
2021/01/11 01:48:12;;;;;;;;;;;;;;;;;;;;;
2021/01/11 01:50:41;;;;;;;11.75;9.02;;;;;;;;;;5125498;28;20088;-58
2021/01/11 01:53:09;;;;;;;13.85;10.65;;;;;;;;;;5126091;28;20035;-57
2021/01/11 01:55:56;;;;;;;15.23;9.73;;;;;;;;;;5105533;28;20061;-59
2021/01/11 01:58:33;;;;;;;17.50;12.30;;;;;;;;;;5120738;28;20480;-58
2021/01/11 02:01:15;;;;;;;12.63;11.33;;;;;;;;;;5106884;28;20469;-57
2021/01/11 02:04:02;;;;;;;16.03;11.97;;;;;;;;;;5125502;28;20032;-58
2021/01/11 02:09:26;;;;;;;14.50;11.17;;;;;;;;;;5124570;28;20069;-58
2021/01/11 02:12:15;;;;;;;15.97;11.07;;;;;;;;;;5125438;28;20035;-58
2021/01/11 02:15:21;;;;;;;16.70;11.93;;;;;;;;;;5125057;28;20407;-58
2021/01/11 02:18:14;;;;;;;10.83;9.63;;;;;;;;;;5124643;28;20039;-58
2021/01/11 02:24:22;;;;;;;10.67;9.73;;;;;;;;;;5068252;28;20028;-57
2021/01/11 02:27:26;;;;;;;;;;;;;;;;;;;;;
2021/01/11 02:30:12;;;;;;;13.27;10.37;;;;;;;;;;5124740;28;20076;-58
2021/01/11 02:33:00;;;;;;;13.93;8.90;;;;;;;;;;5124412;28;20087;-55
2021/01/11 02:35:56;;;;;;;15.27;8.70;;;;;;;;;;5123758;28;20102;-58
2021/01/11 02:39:12;;;;;;;22.53;12.17;;;;;;;;;;5115440;28;20040;-58
2021/01/11 02:42:09;;;;;;;15.53;13.10;;;;;;;;;;5118883;28;20051;-58
2021/01/11 02:44:54;;;;;;;17.07;12.00;;;;;;;;;;5125305;28;20028;-58
2021/01/11 02:50:53;;;;;;;14.47;10.00;;;;;;;;;;5124350;28;20087;-57
2021/01/11 02:53:30;;;;;;;16.20;13.77;;;;;;;;;;5042270;28;20033;-58
2021/01/11 02:56:10;;;;;;;13.93;11.90;;;;;;;;;;5042779;28;20092;-59
2021/01/11 03:01:56;;;;;;;12.27;9.80;;;;;;;;;;5124139;28;20042;-58
2021/01/11 03:04:52;;;;;;;15.60;13.27;;;;;;;;;;5125537;28;20106;-59
2021/01/11 03:11:07;;;;;;;;;;;;;;;;;;;;;
2021/01/11 03:16:50;;;;;;;16.57;12.10;;;;;;;;;;5061523;28;20075;-58
2021/01/11 03:19:34;;;;;;;11.97;9.23;;;;;;;;;;5061572;28;20445;-57
2021/01/11 03:22:20;;;;;;;14.93;12.03;;;;;;;;;;5104439;28;20057;-58
2021/01/11 03:24:51;;;;;;;15.70;14.00;;;;;;;;;;5125145;28;20031;-58
2021/01/11 03:30:25;;;;;;;20.13;11.57;;;;;;;;;;5116049;28;20423;-59
2021/01/11 03:32:55;;;;;;;14.17;11.30;;;;;;;;;;5124207;28;20035;-58
2021/01/11 03:41:35;;;;;;;10.43;9.40;;;;;;;;;;5123486;28;20047;-58
2021/01/11 03:44:30;;;;;;;14.47;9.97;;;;;;;;;;5124673;28;20043;-58
2021/01/11 03:47:27;;;;;;;13.33;9.97;;;;;;;;;;5112983;28;20031;-57
2021/01/11 03:50:04;;;;;;;12.80;9.10;;;;;;;;;;5099330;28;20134;-58
2021/01/11 03:53:00;;;;;;;18.33;13.63;;;;;;;;;;5105198;28;20031;-59
2021/01/11 03:55:47;;;;;;;17.70;11.43;;;;;;;;;;5088486;28;20036;-58
2021/01/11 03:58:52;;;;;;;15.87;10.37;;;;;;;;;;5106001;28;20028;-58
2021/01/11 04:04:10;;;;;;;16.70;13.53;;;;;;;;;;5124053;28;20384;-58
2021/01/11 04:06:46;;;;;;;16.40;11.73;;;;;;;;;;5126278;28;20028;-58
2021/01/11 04:09:44;;;;;;;15.57;13.17;;;;;;;;;;5110397;28;20083;-58
2021/01/11 04:12:26;;;;;;;14.53;12.33;;;;;;;;;;5128626;28;20365;-59
2021/01/11 04:18:26;;;;;;;10.00;8.43;;;;;;;;;;5127941;28;20046;-57
2021/01/11 04:21:09;;;;;;;16.13;12.33;;;;;;;;;;5112850;28;20092;-58
2021/01/11 04:27:24;;;;;;;16.10;11.43;;;;;;;;;;5114176;28;20038;-58
2021/01/11 04:30:16;;;;;;;9.50;8.02;;;;;;;;;;5045394;28;20634;-56
2021/01/11 04:33:04;;;;;;;19.70;11.53;;;;;;;;;;5036527;28;20426;-58
2021/01/11 04:36:14;;;;;;;13.03;10.07;;;;;;;;;;5036651;28;20108;-58
2021/01/11 04:39:15;;;;;;;9.30;8.40;;;;;;;;;;4982277;28;20094;-58
2021/01/11 04:42:13;;;;;;;19.20;10.70;;;;;;;;;;5035697;28;20359;-55
2021/01/11 04:45:02;;;;;;;15.63;11.00;;;;;;;;;;4952088;28;20700;-56
2021/01/11 04:47:51;;;;;;;13.27;11.87;;;;;;;;;;5040607;28;20037;-58
2021/01/11 04:50:45;;;;;;;14.27;11.43;;;;;;;;;;4998026;28;20499;-58
2021/01/11 04:53:28;;;;;;;15.00;11.83;;;;;;;;;;5054778;28;20385;-58
2021/01/11 04:56:20;;;;;;;17.73;10.97;;;;;;;;;;5034927;28;20041;-58
2021/01/11 04:59:17;;;;;;;14.53;10.50;;;;;;;;;;5034852;28;20053;-58
2021/01/11 05:08:22;;;;;;;11.57;9.80;;;;;;;;;;5034697;28;20032;-57
2021/01/11 05:10:55;;;;;;;15.97;13.70;;;;;;;;;;5035189;28;20484;-58
2021/01/11 05:13:37;;;;;;;22.43;18.03;;;;;;;;;;5035230;28;20471;-58
2021/01/11 05:16:44;;;;;;;13.93;11.77;;;;;;;;;;5034496;28;20029;-57
2021/01/11 05:29:05;;;;;;;13.20;9.03;;;;;;;;;;5034775;28;20538;-57
2021/01/11 05:32:12;;;;;;;18.63;11.90;;;;;;;;;;5035463;28;20025;-58
2021/01/11 05:35:09;;;;;;;;;;;;;;;;;;;;;
2021/01/11 05:37:51;;;;;;;11.87;10.77;;;;;;;;;;5034344;28;20055;-57
2021/01/11 05:49:45;;;;;;;14.37;11.57;;;;;;;;;;5009015;28;20041;-57
2021/01/11 05:52:29;;;;;;;13.47;10.97;;;;;;;;;;5050026;28;20043;-58
2021/01/11 05:55:17;;;;;;;12.60;10.83;;;;;;;;;;5096145;28;20161;-55
2021/01/11 05:58:13;;;;;;;11.83;8.87;;;;;;;;;;5097175;28;20149;-57
2021/01/11 06:01:01;;;;;;;13.17;10.23;;;;;;;;;;5059645;28;20047;-57
2021/01/11 06:03:36;;;;;;;13.87;11.93;;;;;;;;;;5093454;28;20043;-56
2021/01/11 06:06:15;;;;;;;8.90;7.87;;;;;;;;;;5078923;28;20058;-58
2021/01/11 06:08:41;;;;;;;11.07;9.90;;;;;;;;;;5077659;28;20082;-56
2021/01/11 06:11:25;;;;;;;11.00;8.93;;;;;;;;;;5096009;28;20462;-57
2021/01/11 06:14:35;;;;;;;16.00;10.30;;;;;;;;;;5097354;28;20068;-57
2021/01/11 06:18:01;;;;;;;9.75;6.30;;;;;;;;;;5014680;28;20030;-57
2021/01/11 06:20:08;;;;;;;14.37;9.83;;;;;;;;;;5005459;28;20034;-56
2021/01/11 06:23:07;;;;;;;10.03;9.07;;;;;;;;;;5061313;28;20024;-58
2021/01/11 06:25:54;;;;;;;13.10;8.80;;;;;;;;;;5096612;28;20099;-57
2021/01/11 06:28:35;;;;;;;15.53;10.60;;;;;;;;;;5095997;28;20032;-57
2021/01/11 06:31:31;;;;;;;14.50;12.70;;;;;;;;;;5073238;28;20032;-57
2021/01/11 06:34:03;;;;;;;21.97;11.27;;;;;;;;;;5081354;28;20031;-58
2021/01/11 06:39:51;;;;;;;12.60;10.60;;;;;;;;;;5095623;28;20036;-57
2021/01/11 06:42:58;;;;;;;12.60;9.53;;;;;;;;;;5113622;28;20500;-57
2021/01/11 06:45:57;;;;;;;14.67;8.53;;;;;;;;;;5034555;28;20469;-58
2021/01/11 06:48:42;;;;;;;9.87;7.07;;;;;;;;;;5014788;28;20034;-58
2021/01/11 06:51:41;;;;;;;9.20;8.03;;;;;;;;;;5026252;28;20528;-57
2021/01/11 06:54:11;;;;;;;9.80;8.77;;;;;;;;;;5116092;28;20022;-58
2021/01/11 06:56:57;;;;;;;20.77;10.90;;;;;;;;;;5116120;28;20076;-57
2021/01/11 06:59:57;;;;;;;12.13;9.33;;;;;;;;;;5113685;28;20461;-58
2021/01/11 07:02:55;;;;;;;13.02;9.48;;;;;;;;;;5108791;28;20386;-57
2021/01/11 07:05:49;;;;;;;;;;;;;;;;;;;;;
2021/01/11 07:09:10;;;;;;;;;;;;;;;;;;;;;
2021/01/11 07:11:52;;;;;;;12.07;7.95;;;;;;;;;;5043171;28;20393;-54
2021/01/11 07:15:01;;;;;;;13.93;12.63;;;;;;;;;;5095182;28;20032;-57
2021/01/11 07:18:05;;;;;;;11.13;6.90;;;;;;;;;;5050902;28;20122;-56
2021/01/11 07:26:50;;;;;;;14.23;9.70;;;;;;;;;;5066583;28;20092;-56
2021/01/11 07:29:25;;;;;;;13.70;10.43;;;;;;;;;;5072146;28;20032;-58
2021/01/11 07:32:12;;;;;;;18.03;9.83;;;;;;;;;;5072486;28;20089;-56
2021/01/11 07:34:56;;;;;;;14.57;9.27;;;;;;;;;;5026733;28;20047;-58
2021/01/11 07:37:28;;;;;;;8.67;7.63;;;;;;;;;;5071853;28;20037;-57
2021/01/11 07:40:12;;;;;;;12.23;10.57;;;;;;;;;;5048557;28;20029;-55
2021/01/11 07:43:54;;;;;;;12.53;9.93;;;;;;;;;;5071460;28;20057;-57
2021/01/11 07:46:31;;;;;;;13.53;10.57;;;;;;;;;;4990468;28;20132;-57
2021/01/11 07:49:25;;;;;;;12.40;10.27;;;;;;;;;;4993299;28;20026;-57
2021/01/11 07:52:16;;;;;;;;;;;;;;;;;;;;;
2021/01/11 07:55:07;;;;;;;13.93;12.30;;;;;;;;;;5057345;28;20394;-56
2021/01/11 07:57:45;;;;;;;12.10;9.57;;;;;;;;;;5072268;28;20378;-56
2021/01/11 08:00:18;;;;;;;14.70;9.53;;;;;;;;;;5082544;28;20036;-53
2021/01/11 08:03:02;;;;;;;18.00;10.23;;;;;;;;;;5076015;28;20111;-56
2021/01/11 08:05:35;;;;;;;14.40;11.83;;;;;;;;;;5091936;28;20040;-55
2021/01/11 08:08:40;;;;;;;13.27;11.67;;;;;;;;;;5093196;28;20066;-56
2021/01/11 08:11:20;;;;;;;11.67;9.27;;;;;;;;;;5061684;28;20037;-57
2021/01/11 08:17:40;;;;;;;18.50;11.27;;;;;;;;;;5094564;28;20044;-55
2021/01/11 08:20:25;;;;;;;18.43;13.23;;;;;;;;;;5015597;28;20029;-56
2021/01/11 08:23:32;;;;;;;17.33;11.80;;;;;;;;;;5032523;28;20440;-55
2021/01/11 08:28:55;;;;;;;15.33;10.20;;;;;;;;;;5077904;28;20060;-56
2021/01/11 08:34:38;;;;;;;16.70;11.77;;;;;;;;;;5094253;28;20051;-55
2021/01/11 08:37:41;;;;;;;22.10;13.33;;;;;;;;;;5094092;28;20036;-55
2021/01/11 08:40:26;;;;;;;18.40;10.83;;;;;;;;;;5095299;28;20056;-56
2021/01/11 08:43:23;;;;;;;;;;;;;;;;;;;;;
2021/01/11 08:49:14;;;;;;;19.83;12.27;;;;;;;;;;5114707;28;20042;-57
2021/01/11 08:52:11;;;;;;;16.95;9.88;;;;;;;;;;5116257;28;20024;-57
2021/01/11 08:55:00;;;;;;;12.67;10.33;;;;;;;;;;5118507;28;20035;-55
2021/01/11 08:57:54;;;;;;;12.40;10.03;;;;;;;;;;5120961;28;20106;-58
2021/01/11 09:00:54;;;;;;;12.77;10.47;;;;;;;;;;5076909;28;20027;-58
2021/01/11 09:06:54;;;;;;;14.50;12.93;;;;;;;;;;5103873;28;20039;-57
2021/01/11 09:09:33;;;;;;;11.77;9.37;;;;;;;;;;5113079;28;20028;-58
2021/01/11 09:12:44;;;;;;;;;;;;;;;;;;;;;
2021/01/11 09:15:42;;;;;;;12.87;11.23;;;;;;;;;;5122233;28;20111;-57
2021/01/11 09:18:24;;;;;;;13.50;11.90;;;;;;;;;;5124880;28;20472;-54
2021/01/11 09:24:19;;;;;;;15.67;10.27;;;;;;;;;;5121501;28;20050;-58
2021/01/11 09:30:26;;;;;;;18.20;10.77;;;;;;;;;;5120112;28;20032;-55
2021/01/11 09:36:35;;;;;;;;;;;;;;;;;;;;;
2021/01/11 09:39:28;;;;;;;17.10;11.20;;;;;;;;;;5042017;28;20108;-58
2021/01/11 09:45:47;;;;;;;13.55;12.00;;;;;;;;;;4963337;29;20086;-55
2021/01/11 09:48:28;;;;;;;16.00;11.63;;;;;;;;;;4947378;29;20055;-58
2021/01/11 09:51:36;;;;;;;14.63;10.50;;;;;;;;;;5031152;28;20130;-58
2021/01/11 09:54:26;;;;;;;14.47;11.07;;;;;;;;;;5033273;28;20039;-57
2021/01/11 09:57:10;;;;;;;16.20;10.27;;;;;;;;;;5096980;28;20032;-58
2021/01/11 10:02:46;;;;;;;14.63;11.00;;;;;;;;;;5096562;28;20032;-58
2021/01/11 10:05:29;;;;;;;14.20;10.10;;;;;;;;;;5095883;28;20020;-58
2021/01/11 10:08:18;;;;;;;20.07;12.10;;;;;;;;;;5078178;28;20110;-58
2021/01/11 10:14:19;;;;;;;13.97;10.77;;;;;;;;;;5095849;28;20385;-56
2021/01/11 10:16:46;;;;;;;13.93;12.07;;;;;;;;;;5042782;28;20081;-55
2021/01/11 10:19:31;;;;;;;16.17;11.90;;;;;;;;;;5092416;28;20028;-54
2021/01/11 10:22:01;;;;;;;14.60;9.97;;;;;;;;;;5095617;28;20020;-57
2021/01/11 10:24:50;;;;;;;12.50;9.82;;;;;;;;;;5076892;28;20028;-56
2021/01/11 10:27:52;;;;;;;;;;;;;;;;;;;;;
2021/01/11 10:30:43;;;;;;;;;;;;;;;;;;;;;
2021/01/11 10:36:18;;;;;;;;;;;;;;;;;;;;;
2021/01/11 10:38:52;;;;;;;12.77;9.50;;;;;;;;;;5076381;28;20044;-58
2021/01/11 10:41:30;;;;;;;17.27;11.40;;;;;;;;;;5096473;28;20056;-58
2021/01/11 10:47:00;;;;;;;18.13;11.53;;;;;;;;;;5101952;28;20097;-55
2021/01/11 10:49:50;;;;;;;15.83;11.67;;;;;;;;;;5115836;28;20526;-56
2021/01/11 10:52:35;;;;;;;16.10;9.90;;;;;;;;;;5116244;28;20031;-58
2021/01/11 11:01:01;;;;;;;11.83;8.87;;;;;;;;;;5052475;28;20039;-58
2021/01/11 11:04:23;;;;;;;17.77;11.13;;;;;;;;;;5103527;28;20091;-58
2021/01/11 11:07:26;;;;;;;18.60;10.37;;;;;;;;;;5081435;28;20036;-58
2021/01/11 11:13:26;;;;;;;10.73;8.03;;;;;;;;;;5101751;28;20020;-57
2021/01/11 11:16:24;;;;;;;17.47;10.07;;;;;;;;;;5013174;28;20030;-58
2021/01/11 11:19:17;;;;;;;13.43;8.17;;;;;;;;;;4954427;29;20505;-57
2021/01/11 11:22:05;;;;;;;13.17;8.87;;;;;;;;;;4949946;28;20027;-56
2021/01/11 11:25:01;;;;;;;11.83;10.17;;;;;;;;;;4991983;28;20065;-58
2021/01/11 11:27:43;;;;;;;12.07;10.07;;;;;;;;;;4975604;28;20046;-58
2021/01/11 11:33:39;;;;;;;12.03;9.30;;;;;;;;;;5015446;28;20031;-58
2021/01/11 11:39:18;;;;;;;19.27;10.20;;;;;;;;;;5093071;28;20403;-57
2021/01/11 11:42:04;;;;;;;11.90;8.47;;;;;;;;;;5076469;28;20688;-56
2021/01/11 11:44:53;;;;;;;17.93;11.37;;;;;;;;;;5092866;28;20289;-58
2021/01/11 11:47:36;;;;;;;12.97;10.23;;;;;;;;;;5093817;28;20040;-57
2021/01/11 11:50:29;;;;;;;14.00;10.23;;;;;;;;;;5094486;28;20115;-56
2021/01/11 11:53:22;;;;;;;13.83;10.37;;;;;;;;;;5095036;28;20031;-58
2021/01/11 12:02:40;;;;;;;12.60;9.83;;;;;;;;;;5079632;28;20393;-56
2021/01/11 12:05:58;;;;;;;;;;;;;;;;;;;;;
2021/01/11 12:08:40;;;;;;;;;;;;;;;;;;;;;
2021/01/11 12:14:45;;;;;;;;;;;;;;;;;;;;;
2021/01/11 12:17:26;;;;;;;;;;;;;;;;;;;;;
2021/01/11 12:20:10;;;;;;;16.37;9.67;;;;;;;;;;5051730;28;20032;-58
2021/01/11 12:22:42;;;;;;;10.93;8.20;;;;;;;;;;5093600;28;20519;-58
2021/01/11 12:25:17;;;;;;;15.83;11.53;;;;;;;;;;5094474;28;20024;-57
2021/01/11 12:28:27;;;;;;;10.20;8.60;;;;;;;;;;5053047;28;20041;-56
2021/01/11 12:31:11;;;;;;;10.20;9.00;;;;;;;;;;5054623;28;20039;-59
2021/01/11 12:36:39;;;;;;;9.47;7.30;;;;;;;;;;5044190;28;20179;-59
2021/01/11 12:39:10;;;;;;;13.70;8.33;;;;;;;;;;5038414;28;20068;-59
2021/01/11 12:41:40;;;;;;;13.43;7.82;;;;;;;;;;5054825;28;20040;-57
2021/01/11 12:47:16;;;;;;;11.47;7.00;;;;;;;;;;5062905;28;20596;-59
2021/01/11 12:49:52;;;;;;;12.43;9.70;;;;;;;;;;5075922;28;20417;-59
2021/01/11 12:55:59;;;;;;;13.17;8.77;;;;;;;;;;5074988;28;20036;-56
2021/01/11 12:58:47;;;;;;;9.47;7.97;;;;;;;;;;5035189;28;20503;-56
2021/01/11 13:01:59;;;;;;;;;;;;;;;;;;;;;
2021/01/11 13:04:49;;;;;;;10.70;7.93;;;;;;;;;;5098718;28;20103;-56
2021/01/11 13:07:41;;;;;;;12.60;7.53;;;;;;;;;;5080290;28;20028;-57
2021/01/11 13:13:21;;;;;;;11.97;8.97;;;;;;;;;;5097787;28;20690;-57
2021/01/11 13:15:58;;;;;;;11.20;8.07;;;;;;;;;;5079124;28;20039;-57
2021/01/11 13:18:42;;;;;;;17.73;10.20;;;;;;;;;;5097577;28;20032;-56
2021/01/11 13:21:23;;;;;;;10.63;8.87;;;;;;;;;;5098073;28;20177;-59
2021/01/11 13:27:27;;;;;;;11.20;7.57;;;;;;;;;;5079570;28;20041;-57
2021/01/11 13:30:07;;;;;;;10.77;8.03;;;;;;;;;;5097196;28;20039;-56
2021/01/11 13:32:52;;;;;;;;;;;;;;;;;;;;;
2021/01/11 13:36:01;;;;;;;14.37;10.07;;;;;;;;;;5085437;28;20262;-58
2021/01/11 13:39:14;;;;;;;14.20;6.83;;;;;;;;;;5087986;28;20052;-58
2021/01/11 13:42:10;;;;;;;10.23;8.10;;;;;;;;;;5091497;28;20040;-56
2021/01/11 13:44:52;;;;;;;13.50;9.63;;;;;;;;;;5096069;28;20470;-57
2021/01/11 13:47:29;;;;;;;11.27;8.17;;;;;;;;;;5097384;28;20066;-57
2021/01/11 13:50:02;;;;;;;12.00;9.63;;;;;;;;;;5096685;28;20028;-55
2021/01/11 13:52:49;;;;;;;11.57;9.83;;;;;;;;;;5098562;28;20036;-57
2021/01/11 13:58:36;;;;;;;;;;;;;;;;;;;;;
2021/01/11 14:01:21;;;;;;;9.37;7.70;;;;;;;;;;5096409;28;20028;-57
2021/01/11 14:04:10;;;;;;;16.17;10.90;;;;;;;;;;5096250;28;20098;-57
2021/01/11 14:07:01;;;;;;;13.47;9.73;;;;;;;;;;5094792;28;20032;-57
2021/01/11 14:09:42;;;;;;;15.07;9.10;;;;;;;;;;5094258;28;20028;-56
2021/01/11 14:15:39;;;;;;;8.63;6.70;;;;;;;;;;5095711;28;20384;-55
2021/01/11 14:21:28;;;;;;;11.97;7.67;;;;;;;;;;4954886;28;20046;-58
2021/01/11 14:24:07;;;;;;;12.17;9.47;;;;;;;;;;4955827;29;20047;-56
2021/01/11 14:29:40;;;;;;;10.17;7.43;;;;;;;;;;4991514;28;20097;-57
2021/01/11 14:32:30;;;;;;;11.17;8.73;;;;;;;;;;5073640;28;20034;-58
2021/01/11 14:35:02;;;;;;;11.80;8.20;;;;;;;;;;5061872;28;20085;-58
2021/01/11 14:37:34;;;;;;;13.77;8.77;;;;;;;;;;5072743;28;20115;-57
2021/01/11 14:43:23;;;;;;;8.93;7.20;;;;;;;;;;5066100;28;20106;-57
2021/01/11 14:49:24;;;;;;;14.23;8.23;;;;;;;;;;5050654;28;20082;-58
2021/01/11 14:55:14;;;;;;;9.97;7.27;;;;;;;;;;5032920;28;20029;-57
2021/01/11 14:58:02;;;;;;;12.67;8.67;;;;;;;;;;5033337;28;20041;-57
2021/01/11 15:00:45;;;;;;;10.97;7.47;;;;;;;;;;5016606;28;20407;-58
2021/01/11 15:03:31;;;;;;;9.30;6.93;;;;;;;;;;5017028;28;20033;-58
2021/01/11 15:06:14;;;;;;;8.23;7.03;;;;;;;;;;5028478;28;20554;-55
2021/01/11 15:09:27;;;;;;;11.63;8.47;;;;;;;;;;5021308;28;20103;-56
2021/01/11 15:12:03;;;;;;;13.57;9.43;;;;;;;;;;5094511;28;20485;-57
2021/01/11 15:14:33;;;;;;;12.30;8.53;;;;;;;;;;5095615;28;20024;-57
2021/01/11 15:17:23;;;;;;;14.70;9.50;;;;;;;;;;5095631;28;20059;-57
2021/01/11 15:20:08;;;;;;;14.30;10.27;;;;;;;;;;5076111;28;20108;-57
2021/01/11 15:22:50;;;;;;;9.60;7.97;;;;;;;;;;5095515;28;20084;-58
2021/01/11 15:25:40;;;;;;;12.07;9.00;;;;;;;;;;5076167;28;20028;-56
2021/01/11 15:31:12;;;;;;;8.77;6.67;;;;;;;;;;5095701;28;20078;-58
2021/01/11 15:34:19;;;;;;;12.40;8.40;;;;;;;;;;5078113;28;20024;-57
2021/01/11 15:37:23;;;;;;;8.83;7.13;;;;;;;;;;5076390;28;20032;-56
2021/01/11 15:43:10;;;;;;;13.07;9.43;;;;;;;;;;5098151;28;20058;-57
2021/01/11 15:49:19;;;;;;;22.13;11.55;;;;;;;;;;5115238;28;20385;-57
2021/01/11 15:54:50;;;;;;;12.67;8.87;;;;;;;;;;5115448;28;20073;-56
2021/01/11 15:57:34;;;;;;;16.93;11.60;;;;;;;;;;5116196;28;20089;-57
2021/01/11 16:00:20;;;;;;;15.80;11.37;;;;;;;;;;5112298;28;20031;-57
2021/01/11 16:03:05;;;;;;;26.20;21.43;;;;;;;;;;5095931;28;20461;-58
2021/01/11 16:05:34;;;;;;;18.27;12.20;;;;;;;;;;5095678;28;20423;-58
2021/01/11 16:08:29;;;;;;;16.27;10.23;;;;;;;;;;5096089;28;20039;-58
2021/01/11 16:11:17;;;;;;;13.70;9.80;;;;;;;;;;5095488;28;20039;-58
2021/01/11 16:17:06;;;;;;;15.05;9.55;;;;;;;;;;5113930;28;20039;-58
2021/01/11 16:19:57;;;;;;;19.70;11.37;;;;;;;;;;5109630;28;20045;-57
2021/01/11 16:22:22;;;;;;;;;;;;;;;;;;5114340;28;20016;-57
2021/01/11 16:25:23;;;;;;;12.00;10.33;;;;;;;;;;5093539;28;19915;-57
2021/01/11 16:28:15;;;;;;;15.45;10.70;;;;;;;;;;5114662;28;20039;-56
2021/01/11 16:30:51;;;;;;;;;;;;;;;;;;;;;
2021/01/11 16:33:30;;;;;;;13.70;10.87;;;;;;;;;;5114183;28;20032;-58
2021/01/11 16:36:12;;;;;;;13.73;11.20;;;;;;;;;;5114251;28;20034;-56
2021/01/11 16:39:15;;;;;;;11.80;10.13;;;;;;;;;;5114626;28;20091;-58
2021/01/11 16:48:46;;;;;;;17.67;10.70;;;;;;;;;;5031234;28;20112;-55
2021/01/11 16:51:35;;;;;;;14.53;11.10;;;;;;;;;;5032137;28;20447;-57
2021/01/11 16:57:26;;;;;;;15.93;12.93;;;;;;;;;;4981086;28;20066;-58
2021/01/11 17:00:29;;;;;;;18.10;12.20;;;;;;;;;;5050598;28;20488;-58
2021/01/11 17:03:14;;;;;;;15.93;10.20;;;;;;;;;;5051519;28;20129;-58
2021/01/11 17:06:01;;;;;;;15.40;12.47;;;;;;;;;;5051422;28;20029;-55
2021/01/11 17:11:26;;;;;;;14.40;10.87;;;;;;;;;;5040882;28;20116;-58
2021/01/11 17:14:02;;;;;;;13.63;10.33;;;;;;;;;;5023074;28;20028;-58
2021/01/11 17:16:43;;;;;;;16.00;11.67;;;;;;;;;;5099837;28;20124;-58
2021/01/11 17:19:31;;;;;;;15.57;11.77;;;;;;;;;;5118593;28;20113;-58
2021/01/11 17:22:13;;;;;;;19.07;14.63;;;;;;;;;;5082406;28;20441;-56
2021/01/11 17:24:45;;;;;;;16.63;11.40;;;;;;;;;;5118453;28;20024;-58
2021/01/11 17:27:14;;;;;;;16.90;12.97;;;;;;;;;;5117897;28;20524;-58
2021/01/11 17:30:10;;;;;;;17.77;11.43;;;;;;;;;;5099146;28;20031;-58
2021/01/11 17:32:42;;;;;;;16.00;12.73;;;;;;;;;;5117595;28;20032;-56
2021/01/11 17:35:36;;;;;;;;;;;;;;;;;;;;;
2021/01/11 17:38:57;;;;;;;14.57;12.03;;;;;;;;;;5116691;28;20050;-57
2021/01/11 17:41:36;;;;;;;15.57;10.20;;;;;;;;;;5108006;28;20028;-58
2021/01/11 17:44:07;;;;;;;22.70;11.57;;;;;;;;;;5087632;28;20108;-58
2021/01/11 17:47:11;;;;;;;24.57;13.73;;;;;;;;;;5098147;28;20054;-58
2021/01/11 17:50:01;;;;;;;15.13;11.13;;;;;;;;;;5117541;28;20031;-57
2021/01/11 17:52:43;;;;;;;16.53;13.40;;;;;;;;;;5118270;28;20038;-56
2021/01/11 17:55:28;;;;;;;14.83;11.90;;;;;;;;;;5117326;28;20074;-58
2021/01/11 17:58:11;;;;;;;17.63;12.10;;;;;;;;;;5117202;28;20038;-58
2021/01/11 18:01:01;;;;;;;16.13;12.80;;;;;;;;;;5099401;28;20063;-57
2021/01/11 18:03:48;;;;;;;18.67;12.30;;;;;;;;;;5117032;28;20024;-55
2021/01/11 18:06:26;;;;;;;22.87;13.30;;;;;;;;;;5117227;28;20030;-58
2021/01/11 18:15:17;;;;;;;16.77;11.80;;;;;;;;;;5091589;28;20047;-58
2021/01/11 18:21:04;;;;;;;;;;;;;;;;;;5116767;28;20411;-58
2021/01/11 18:24:16;;;;;;;13.63;10.60;;;;;;;;;;5115762;28;19904;-58
2021/01/11 18:26:45;;;;;;;13.37;10.57;;;;;;;;;;5108900;28;20059;-58
2021/01/11 18:29:24;;;;;;;;;;;;;;;;;;;;;
2021/01/11 18:31:57;;;;;;;22.27;14.40;;;;;;;;;;5115939;28;20385;-58
2021/01/11 18:34:58;;;;;;;16.40;12.93;;;;;;;;;;5116440;28;20031;-56
2021/01/11 18:37:33;;;;;;;13.87;12.03;;;;;;;;;;5032616;28;20046;-58
2021/01/11 18:40:33;;;;;;;16.57;11.37;;;;;;;;;;5032897;28;20064;-58
2021/01/11 18:43:13;;;;;;;22.67;13.90;;;;;;;;;;5016442;28;20422;-58
2021/01/11 18:48:25;;;;;;;19.13;13.80;;;;;;;;;;5033403;28;20061;-57
2021/01/11 18:51:31;;;;;;;24.30;13.80;;;;;;;;;;5087338;27;20403;-57
2021/01/11 18:54:29;;;;;;;23.63;14.33;;;;;;;;;;5048643;28;20517;-57
2021/01/11 18:59:52;;;;;;;18.53;14.50;;;;;;;;;;5036936;28;20037;-58
2021/01/11 19:02:21;;;;;;;;;;;;;;;;;;5048041;28;20029;-58
2021/01/11 19:05:07;;;;;;;23.27;15.07;;;;;;;;;;5046130;28;20383;-58
2021/01/11 19:07:50;;;;;;;19.43;14.40;;;;;;;;;;5045926;28;20024;-58
2021/01/11 19:10:25;;;;;;;27.60;14.43;;;;;;;;;;5046675;28;20043;-58
2021/01/11 19:13:06;;;;;;;19.30;14.77;;;;;;;;;;5046722;28;20498;-58
2021/01/11 19:15:58;;;;;;;25.77;15.80;;;;;;;;;;5046048;27;20116;-58
2021/01/11 19:18:45;;;;;;;18.07;13.83;;;;;;;;;;5043840;27;20383;-58
2021/01/11 19:21:23;;;;;;;17.23;14.67;;;;;;;;;;5048182;28;20025;-58
2021/01/11 19:27:00;;;;;;;22.75;14.45;;;;;;;;;;5047724;28;20036;-57
2021/01/11 19:29:29;;;;;;;25.97;15.03;;;;;;;;;;5047681;28;20025;-57
2021/01/11 19:32:36;;;;;;;20.90;15.83;;;;;;;;;;5048310;28;20351;-57
2021/01/11 19:47:44;;;;;;;18.07;14.27;;;;;;;;;;5027328;28;20095;-58
2021/01/11 19:50:47;;;;;;;;;;;;;;;;;;5025529;28;20074;-57
2021/01/11 19:53:06;;;;;;;19.73;13.20;;;;;;;;;;5028013;28;19909;-56
2021/01/11 19:55:46;;;;;;;20.00;14.33;;;;;;;;;;5025392;28;20037;-57
2021/01/11 19:58:29;;;;;;;18.50;14.80;;;;;;;;;;5025716;28;20387;-58
2021/01/11 20:01:10;;;;;;;18.70;14.80;;;;;;;;;;4983244;28;20751;-58
2021/01/11 20:03:57;;;;;;;15.63;13.15;;;;;;;;;;4975156;28;20080;-56
2021/01/11 20:07:32;;;;;;;18.53;14.43;;;;;;;;;;4972475;28;20035;-58
2021/01/11 20:09:48;;;;;;;19.27;14.00;;;;;;;;;;4974147;28;20070;-56
2021/01/11 20:15:49;;;;;;;;;;;;;;;;;;;;;
2021/01/11 20:18:55;;;;;;;21.07;14.93;;;;;;;;;;4990037;28;20527;-58
2021/01/11 20:21:31;;;;;;;24.73;14.00;;;;;;;;;;4975975;28;20084;-56
2021/01/11 20:24:52;;;;;;;23.37;15.33;;;;;;;;;;4975077;28;20384;-57
2021/01/11 20:27:32;;;;;;;17.07;13.20;;;;;;;;;;5020820;27;20057;-57
2021/01/11 20:32:55;;;;;;;24.57;17.13;;;;;;;;;;4974544;28;20114;-57
2021/01/11 20:35:45;;;;;;;;;;;;;;;;;;;;;
2021/01/11 20:38:18;;;;;;;16.50;8.90;;;;;;;;;;4974945;28;20038;-58
2021/01/11 20:40:53;;;;;;;22.50;15.50;;;;;;;;;;4973898;28;20046;-58
2021/01/11 20:43:33;;;;;;;19.13;12.80;;;;;;;;;;4974353;28;20023;-58
2021/01/11 20:46:30;;;;;;;22.27;15.90;;;;;;;;;;4974579;28;20030;-56
2021/01/11 20:49:42;;;;;;;;;;;;;;;;;;;;;
2021/01/11 20:52:29;;;;;;;19.23;13.27;;;;;;;;;;5010766;28;20050;-58
2021/01/11 20:55:10;;;;;;;17.37;13.30;;;;;;;;;;5011716;28;20479;-56
2021/01/11 20:58:02;;;;;;;20.30;14.63;;;;;;;;;;5030649;28;20047;-57
2021/01/11 21:00:50;;;;;;;15.93;14.33;;;;;;;;;;5031309;28;20037;-58
2021/01/11 21:03:35;;;;;;;;;;;;;;;;;;;;;
2021/01/11 21:06:01;;;;;;;22.90;13.70;;;;;;;;;;5033861;28;20037;-57
2021/01/11 21:15:04;;;;;;;17.50;14.47;;;;;;;;;;5030350;28;20116;-57
2021/01/11 21:17:44;;;;;;;16.17;12.43;;;;;;;;;;5030916;28;20045;-56
2021/01/11 21:20:42;;;;;;;;;;;;;;;;;;;;;
2021/01/11 21:23:33;;;;;;;14.68;13.13;;;;;;;;;;5030590;28;20034;-58
2021/01/11 21:35:31;;;;;;;17.23;12.10;;;;;;;;;;5013592;28;20112;-57